ALK103 VCBI-VRMM
Flight info
| Callsign | ALK103 |
|---|---|
| Flight time | 1h 11m |
| Altitude | 38000 |
| Route | LALUM1D TELIG M512 HOKEY HOKEY1A |
| Aircraft | A320/M-SDE3FGHIRWY/LB1 |
Departure
| Time | 2026-04-22 15:40 |
|---|---|
| Airport | Bandaranaike International Colombo Airport (VCBI) |
Arrival
| Time | 2026-04-22 16:52 |
|---|---|
| Airport | Velana International Airport (VRMM) |
| Time | Latitude | Longitude | Altitude | Speed | Heading |
|---|---|---|---|---|---|
| 2026-04-22 15:21 | 7.17611 | 79.88413 | 27 ft | 0 kts | 36° |
| 2026-04-22 15:22 | 7.17610 | 79.88413 | 27 ft | 0 kts | 36° |
| 2026-04-22 15:30 | 7.17608 | 79.88411 | 27 ft | 2 kts | 36° |
| 2026-04-22 15:31 | 7.17593 | 79.88400 | 27 ft | 3 kts | 34° |
| 2026-04-22 15:31 | 7.17576 | 79.88389 | 27 ft | 3 kts | 28° |
| 2026-04-22 15:31 | 7.17558 | 79.88381 | 27 ft | 3 kts | 16° |
| 2026-04-22 15:31 | 7.17539 | 79.88378 | 27 ft | 3 kts | 342° |
| 2026-04-22 15:32 | 7.17529 | 79.88383 | 27 ft | 1 kts | 307° |
| 2026-04-22 15:34 | 7.17531 | 79.88381 | 27 ft | 2 kts | 307° |
| 2026-04-22 15:35 | 7.17543 | 79.88365 | 27 ft | 4 kts | 307° |
| 2026-04-22 15:35 | 7.17567 | 79.88333 | 27 ft | 7 kts | 307° |
| 2026-04-22 15:35 | 7.17603 | 79.88286 | 27 ft | 10 kts | 307° |
| 2026-04-22 15:35 | 7.17662 | 79.88256 | 28 ft | 11 kts | 26° |
| 2026-04-22 15:36 | 7.17731 | 79.88307 | 28 ft | 14 kts | 37° |
| 2026-04-22 15:36 | 7.17813 | 79.88370 | 28 ft | 16 kts | 37° |
| 2026-04-22 15:36 | 7.17908 | 79.88443 | 28 ft | 18 kts | 37° |
| 2026-04-22 15:36 | 7.18018 | 79.88527 | 27 ft | 21 kts | 37° |
| 2026-04-22 15:37 | 7.18141 | 79.88621 | 27 ft | 24 kts | 37° |
| 2026-04-22 15:37 | 7.18278 | 79.88726 | 27 ft | 26 kts | 37° |
| 2026-04-22 15:37 | 7.18428 | 79.88840 | 28 ft | 28 kts | 37° |
| 2026-04-22 15:37 | 7.18586 | 79.88960 | 28 ft | 28 kts | 36° |
| 2026-04-22 15:38 | 7.18746 | 79.89082 | 28 ft | 30 kts | 37° |
| 2026-04-22 15:38 | 7.19097 | 79.89352 | 27 ft | 30 kts | 38° |
| 2026-04-22 15:38 | 7.19200 | 79.89408 | 27 ft | 7 kts | 350° |
| 2026-04-22 15:39 | 7.19241 | 79.89369 | 27 ft | 9 kts | 303° |
| 2026-04-22 15:39 | 7.19284 | 79.89309 | 27 ft | 12 kts | 306° |
| 2026-04-22 15:39 | 7.19285 | 79.89270 | 27 ft | 5 kts | 218° |
| 2026-04-22 15:39 | 7.19234 | 79.89231 | 27 ft | 24 kts | 218° |
| 2026-04-22 15:40 | 7.18898 | 79.88974 | 30 ft | 94 kts | 217° |
| 2026-04-22 15:40 | 7.18221 | 79.88457 | 27 ft | 147 kts | 217° |
| 2026-04-22 15:40 | 7.17328 | 79.87783 | 369 ft | 161 kts | 215° |
| 2026-04-22 15:40 | 7.16452 | 79.87111 | 997 ft | 156 kts | 216° |
| 2026-04-22 15:41 | 7.15596 | 79.86447 | 1609 ft | 155 kts | 217° |
| 2026-04-22 15:41 | 7.14697 | 79.85750 | 1942 ft | 172 kts | 217° |
| 2026-04-22 15:41 | 7.13706 | 79.84983 | 2277 ft | 188 kts | 217° |
| 2026-04-22 15:41 | 7.12610 | 79.84132 | 2558 ft | 211 kts | 217° |
| 2026-04-22 15:42 | 7.11379 | 79.83183 | 2897 ft | 234 kts | 217° |
| 2026-04-22 15:42 | 7.10028 | 79.82139 | 3361 ft | 255 kts | 217° |
| 2026-04-22 15:42 | 7.08580 | 79.81028 | 3995 ft | 267 kts | 216° |
| 2026-04-22 15:42 | 7.07079 | 79.79883 | 4787 ft | 274 kts | 216° |
| 2026-04-22 15:43 | 7.05539 | 79.78709 | 5571 ft | 280 kts | 216° |
| 2026-04-22 15:43 | 7.03973 | 79.77514 | 6383 ft | 285 kts | 216° |
| 2026-04-22 15:43 | 7.02380 | 79.76295 | 7104 ft | 290 kts | 217° |
| 2026-04-22 15:43 | 7.00765 | 79.75057 | 7880 ft | 294 kts | 217° |
| 2026-04-22 15:44 | 6.99131 | 79.73798 | 8646 ft | 298 kts | 217° |
| 2026-04-22 15:44 | 6.97475 | 79.72522 | 9403 ft | 302 kts | 217° |
| 2026-04-22 15:44 | 6.95793 | 79.71231 | 10078 ft | 308 kts | 217° |
| 2026-04-22 15:44 | 6.94025 | 79.69873 | 10265 ft | 331 kts | 217° |
| 2026-04-22 15:45 | 6.92147 | 79.68432 | 10604 ft | 345 kts | 217° |
| 2026-04-22 15:45 | 6.90224 | 79.66954 | 11180 ft | 350 kts | 217° |
| 2026-04-22 15:45 | 6.88309 | 79.65424 | 11798 ft | 353 kts | 224° |
| 2026-04-22 15:45 | 6.86744 | 79.63509 | 12415 ft | 356 kts | 233° |
| 2026-04-22 15:46 | 6.85218 | 79.61534 | 13047 ft | 359 kts | 233° |
| 2026-04-22 15:46 | 6.83702 | 79.59522 | 13668 ft | 362 kts | 233° |
| 2026-04-22 15:46 | 6.82172 | 79.57495 | 14207 ft | 365 kts | 233° |
| 2026-04-22 15:46 | 6.80614 | 79.55461 | 14758 ft | 368 kts | 233° |
| 2026-04-22 15:47 | 6.79031 | 79.53423 | 15294 ft | 371 kts | 232° |
| 2026-04-22 15:47 | 6.77425 | 79.51372 | 15828 ft | 374 kts | 232° |
| 2026-04-22 15:47 | 6.75802 | 79.49311 | 16361 ft | 378 kts | 232° |
| 2026-04-22 15:47 | 6.74162 | 79.47233 | 16886 ft | 381 kts | 232° |
| 2026-04-22 15:48 | 6.72507 | 79.45139 | 17421 ft | 384 kts | 232° |
| 2026-04-22 15:48 | 6.70841 | 79.43030 | 17969 ft | 386 kts | 232° |
| 2026-04-22 15:48 | 6.69166 | 79.40904 | 18455 ft | 389 kts | 232° |
| 2026-04-22 15:48 | 6.67481 | 79.38762 | 18924 ft | 392 kts | 232° |
| 2026-04-22 15:49 | 6.65788 | 79.36607 | 19406 ft | 394 kts | 232° |
| 2026-04-22 15:49 | 6.64085 | 79.34439 | 19907 ft | 396 kts | 232° |
| 2026-04-22 15:49 | 6.62372 | 79.32263 | 20399 ft | 398 kts | 232° |
| 2026-04-22 15:49 | 6.60650 | 79.30077 | 20908 ft | 400 kts | 232° |
| 2026-04-22 15:50 | 6.58919 | 79.27883 | 21433 ft | 401 kts | 231° |
| 2026-04-22 15:50 | 6.57183 | 79.25681 | 21946 ft | 403 kts | 231° |
| 2026-04-22 15:50 | 6.55441 | 79.23470 | 22460 ft | 404 kts | 231° |
| 2026-04-22 15:50 | 6.53691 | 79.21246 | 22972 ft | 406 kts | 231° |
| 2026-04-22 15:51 | 6.51930 | 79.19013 | 23433 ft | 409 kts | 231° |
| 2026-04-22 15:51 | 6.50157 | 79.16768 | 23829 ft | 411 kts | 231° |
| 2026-04-22 15:51 | 6.48376 | 79.14514 | 24211 ft | 413 kts | 231° |
| 2026-04-22 15:51 | 6.46586 | 79.12243 | 24582 ft | 415 kts | 231° |
| 2026-04-22 15:52 | 6.44789 | 79.09962 | 24955 ft | 417 kts | 231° |
| 2026-04-22 15:52 | 6.42981 | 79.07667 | 25326 ft | 419 kts | 231° |
| 2026-04-22 15:52 | 6.41165 | 79.05364 | 25690 ft | 421 kts | 230° |
| 2026-04-22 15:52 | 6.39340 | 79.03050 | 26048 ft | 423 kts | 230° |
| 2026-04-22 15:53 | 6.37504 | 79.00726 | 26401 ft | 425 kts | 230° |
| 2026-04-22 15:53 | 6.35661 | 78.98393 | 26739 ft | 427 kts | 230° |
| 2026-04-22 15:53 | 6.33810 | 78.96047 | 27068 ft | 429 kts | 230° |
| 2026-04-22 15:53 | 6.31951 | 78.93689 | 27397 ft | 431 kts | 230° |
| 2026-04-22 15:54 | 6.30083 | 78.91321 | 27727 ft | 433 kts | 230° |
| 2026-04-22 15:54 | 6.28354 | 78.88831 | 28041 ft | 437 kts | 238° |
| 2026-04-22 15:54 | 6.27007 | 78.86081 | 28373 ft | 440 kts | 243° |
| 2026-04-22 15:54 | 6.25729 | 78.83280 | 28713 ft | 442 kts | 243° |
| 2026-04-22 15:55 | 6.24433 | 78.80465 | 29043 ft | 444 kts | 243° |
| 2026-04-22 15:55 | 6.23127 | 78.77643 | 29379 ft | 447 kts | 243° |
| 2026-04-22 15:55 | 6.21813 | 78.74805 | 29720 ft | 449 kts | 243° |
| 2026-04-22 15:55 | 6.20494 | 78.71956 | 30022 ft | 451 kts | 243° |
| 2026-04-22 15:56 | 6.19171 | 78.69093 | 30302 ft | 453 kts | 242° |
| 2026-04-22 15:56 | 6.17843 | 78.66221 | 30587 ft | 454 kts | 242° |
| 2026-04-22 15:56 | 6.16513 | 78.63339 | 30870 ft | 456 kts | 242° |
| 2026-04-22 15:56 | 6.15181 | 78.60444 | 31157 ft | 456 kts | 242° |
| 2026-04-22 15:57 | 6.13745 | 78.57616 | 31560 ft | 452 kts | 235° |
| 2026-04-22 15:57 | 6.11925 | 78.55069 | 31980 ft | 447 kts | 229° |
| 2026-04-22 15:57 | 6.09987 | 78.52634 | 32416 ft | 445 kts | 228° |
| 2026-04-22 15:57 | 6.08061 | 78.50212 | 32861 ft | 443 kts | 228° |
| 2026-04-22 15:58 | 6.06147 | 78.47800 | 33302 ft | 440 kts | 228° |
| 2026-04-22 15:58 | 6.04243 | 78.45400 | 33781 ft | 438 kts | 228° |
| 2026-04-22 15:58 | 6.02348 | 78.43009 | 34176 ft | 436 kts | 228° |
| 2026-04-22 15:58 | 6.00464 | 78.40631 | 34540 ft | 434 kts | 228° |
| 2026-04-22 15:59 | 5.98583 | 78.38262 | 34885 ft | 433 kts | 228° |
| 2026-04-22 15:59 | 5.96709 | 78.35904 | 35223 ft | 432 kts | 228° |
| 2026-04-22 15:59 | 5.94837 | 78.33550 | 35530 ft | 431 kts | 228° |
| 2026-04-22 15:59 | 5.92965 | 78.31199 | 35836 ft | 430 kts | 228° |
| 2026-04-22 16:00 | 5.91728 | 78.29645 | 36052 ft | 430 kts | 228° |
| 2026-04-22 16:00 | 5.89239 | 78.26507 | 36466 ft | 428 kts | 228° |
| 2026-04-22 16:00 | 5.88010 | 78.24959 | 36670 ft | 428 kts | 228° |
| 2026-04-22 16:00 | 5.86156 | 78.22626 | 36978 ft | 427 kts | 228° |
| 2026-04-22 16:01 | 5.84308 | 78.20300 | 37279 ft | 426 kts | 228° |
| 2026-04-22 16:01 | 5.82464 | 78.17981 | 37571 ft | 425 kts | 228° |
| 2026-04-22 16:01 | 5.80626 | 78.15666 | 37858 ft | 424 kts | 228° |
| 2026-04-22 16:01 | 5.78775 | 78.13340 | 37877 ft | 427 kts | 228° |
| 2026-04-22 16:02 | 5.75079 | 78.08702 | 37888 ft | 426 kts | 228° |
| 2026-04-22 16:02 | 5.71369 | 78.04054 | 37866 ft | 426 kts | 227° |
| 2026-04-22 16:03 | 5.68116 | 77.99086 | 37578 ft | 443 kts | 252° |
| 2026-04-22 16:03 | 5.67691 | 77.95958 | 36944 ft | 456 kts | 262° |
| 2026-04-22 16:03 | 5.67550 | 77.92806 | 36849 ft | 449 kts | 264° |
| 2026-04-22 16:04 | 5.67646 | 77.86521 | 36754 ft | 452 kts | 269° |
| 2026-04-22 16:04 | 5.68239 | 77.80225 | 36767 ft | 455 kts | 273° |
| 2026-04-22 16:05 | 5.69327 | 77.73957 | 36885 ft | 457 kts | 278° |
| 2026-04-22 16:05 | 5.70908 | 77.67758 | 37092 ft | 460 kts | 282° |
| 2026-04-22 16:06 | 5.71894 | 77.64657 | 37217 ft | 461 kts | 284° |
| 2026-04-22 16:06 | 5.72972 | 77.61671 | 37369 ft | 462 kts | 287° |
| 2026-04-22 16:06 | 5.74164 | 77.58723 | 37539 ft | 463 kts | 289° |
| 2026-04-22 16:06 | 5.75489 | 77.55774 | 37734 ft | 463 kts | 290° |
| 2026-04-22 16:07 | 5.76713 | 77.52797 | 37946 ft | 460 kts | 283° |
| 2026-04-22 16:07 | 5.77293 | 77.49699 | 37890 ft | 445 kts | 265° |
| 2026-04-22 16:07 | 5.76978 | 77.46664 | 37879 ft | 432 kts | 250° |
| 2026-04-22 16:07 | 5.75950 | 77.43868 | 37871 ft | 424 kts | 238° |
| 2026-04-22 16:08 | 5.73304 | 77.38566 | 37867 ft | 426 kts | 239° |
| 2026-04-22 16:08 | 5.70677 | 77.33223 | 37870 ft | 427 kts | 239° |
| 2026-04-22 16:09 | 5.68030 | 77.27826 | 37871 ft | 429 kts | 239° |
| 2026-04-22 16:09 | 5.65384 | 77.22456 | 37886 ft | 429 kts | 239° |
| 2026-04-22 16:10 | 5.62728 | 77.17089 | 37901 ft | 429 kts | 239° |
| 2026-04-22 16:10 | 5.60067 | 77.11720 | 37900 ft | 429 kts | 239° |
| 2026-04-22 16:11 | 5.57404 | 77.06353 | 37907 ft | 429 kts | 239° |
| 2026-04-22 16:11 | 5.54745 | 77.00984 | 37900 ft | 430 kts | 239° |
| 2026-04-22 16:12 | 5.52087 | 76.95604 | 37899 ft | 430 kts | 239° |
| 2026-04-22 16:12 | 5.49430 | 76.90221 | 37898 ft | 431 kts | 239° |
| 2026-04-22 16:13 | 5.46760 | 76.84841 | 37897 ft | 431 kts | 239° |
| 2026-04-22 16:13 | 5.44091 | 76.79460 | 37900 ft | 430 kts | 239° |
| 2026-04-22 16:14 | 5.41426 | 76.74081 | 37899 ft | 430 kts | 239° |
| 2026-04-22 16:14 | 5.38773 | 76.68741 | 37898 ft | 430 kts | 239° |
| 2026-04-22 16:15 | 5.36107 | 76.63364 | 37905 ft | 430 kts | 239° |
| 2026-04-22 16:15 | 5.33441 | 76.57983 | 37905 ft | 431 kts | 239° |
| 2026-04-22 16:16 | 5.30772 | 76.52603 | 37905 ft | 431 kts | 239° |
| 2026-04-22 16:16 | 5.28106 | 76.47223 | 37905 ft | 430 kts | 239° |
| 2026-04-22 16:17 | 5.25438 | 76.41850 | 37905 ft | 430 kts | 239° |
| 2026-04-22 16:17 | 5.22774 | 76.36474 | 37905 ft | 430 kts | 239° |
| 2026-04-22 16:18 | 5.20107 | 76.31101 | 37911 ft | 430 kts | 239° |
| 2026-04-22 16:18 | 5.17457 | 76.25766 | 37910 ft | 430 kts | 239° |
| 2026-04-22 16:19 | 5.14782 | 76.20390 | 37907 ft | 431 kts | 239° |
| 2026-04-22 16:19 | 5.12110 | 76.15009 | 37908 ft | 431 kts | 239° |
| 2026-04-22 16:20 | 5.09885 | 76.09395 | 37900 ft | 437 kts | 248° |
| 2026-04-22 16:20 | 5.08108 | 76.03569 | 37909 ft | 437 kts | 248° |
| 2026-04-22 16:21 | 5.06325 | 75.97745 | 37903 ft | 437 kts | 248° |
| 2026-04-22 16:21 | 5.04534 | 75.91924 | 37906 ft | 437 kts | 248° |
| 2026-04-22 16:22 | 5.01847 | 75.83192 | 37908 ft | 437 kts | 248° |
| 2026-04-22 16:23 | 4.99158 | 75.74454 | 37912 ft | 437 kts | 248° |
| 2026-04-22 16:23 | 4.97367 | 75.68623 | 37917 ft | 437 kts | 248° |
| 2026-04-22 16:24 | 4.93736 | 75.60367 | 37909 ft | 429 kts | 236° |
| 2026-04-22 16:25 | 4.90760 | 75.55179 | 37916 ft | 429 kts | 236° |
| 2026-04-22 16:25 | 4.86300 | 75.47383 | 37915 ft | 430 kts | 236° |
| 2026-04-22 16:26 | 4.83329 | 75.42187 | 37915 ft | 429 kts | 236° |
| 2026-04-22 16:26 | 4.80333 | 75.36962 | 37917 ft | 429 kts | 236° |
| 2026-04-22 16:27 | 4.77364 | 75.31768 | 37909 ft | 429 kts | 236° |
| 2026-04-22 16:27 | 4.74394 | 75.26575 | 37904 ft | 430 kts | 236° |
| 2026-04-22 16:28 | 4.72903 | 75.23969 | 37261 ft | 434 kts | 236° |
| 2026-04-22 16:28 | 4.71397 | 75.21339 | 36625 ft | 435 kts | 236° |
| 2026-04-22 16:28 | 4.69883 | 75.18705 | 35976 ft | 436 kts | 236° |
| 2026-04-22 16:28 | 4.68368 | 75.16067 | 35433 ft | 435 kts | 236° |
| 2026-04-22 16:29 | 4.66866 | 75.13445 | 34976 ft | 433 kts | 236° |
| 2026-04-22 16:29 | 4.65372 | 75.10832 | 34483 ft | 431 kts | 237° |
| 2026-04-22 16:29 | 4.63883 | 75.08227 | 33983 ft | 430 kts | 237° |
| 2026-04-22 16:29 | 4.62398 | 75.05626 | 33435 ft | 429 kts | 237° |
| 2026-04-22 16:30 | 4.61420 | 75.03913 | 33112 ft | 427 kts | 237° |
| 2026-04-22 16:30 | 4.59448 | 75.00477 | 32453 ft | 423 kts | 237° |
| 2026-04-22 16:30 | 4.57982 | 74.97927 | 31955 ft | 421 kts | 237° |
| 2026-04-22 16:30 | 4.56526 | 74.95391 | 31459 ft | 419 kts | 238° |
| 2026-04-22 16:31 | 4.55077 | 74.92866 | 30976 ft | 417 kts | 238° |
| 2026-04-22 16:31 | 4.53632 | 74.90350 | 30498 ft | 415 kts | 238° |
| 2026-04-22 16:31 | 4.52193 | 74.87848 | 30024 ft | 414 kts | 238° |
| 2026-04-22 16:31 | 4.50760 | 74.85350 | 29507 ft | 412 kts | 238° |
| 2026-04-22 16:32 | 4.49340 | 74.82872 | 29057 ft | 409 kts | 239° |
| 2026-04-22 16:32 | 4.47933 | 74.80411 | 28630 ft | 405 kts | 239° |
| 2026-04-22 16:32 | 4.46535 | 74.77968 | 28177 ft | 403 kts | 239° |
| 2026-04-22 16:32 | 4.45145 | 74.75543 | 27742 ft | 401 kts | 239° |
| 2026-04-22 16:33 | 4.43760 | 74.73127 | 27318 ft | 399 kts | 239° |
| 2026-04-22 16:33 | 4.42381 | 74.70723 | 26898 ft | 397 kts | 239° |
| 2026-04-22 16:33 | 4.41008 | 74.68326 | 26467 ft | 396 kts | 239° |
| 2026-04-22 16:33 | 4.39638 | 74.65935 | 26038 ft | 396 kts | 239° |
| 2026-04-22 16:34 | 4.38265 | 74.63545 | 25592 ft | 395 kts | 239° |
| 2026-04-22 16:34 | 4.36892 | 74.61159 | 25144 ft | 395 kts | 239° |
| 2026-04-22 16:34 | 4.35517 | 74.58774 | 24690 ft | 396 kts | 239° |
| 2026-04-22 16:34 | 4.34143 | 74.56382 | 24226 ft | 396 kts | 239° |
| 2026-04-22 16:35 | 4.32770 | 74.53986 | 23756 ft | 397 kts | 239° |
| 2026-04-22 16:35 | 4.31393 | 74.51586 | 23252 ft | 398 kts | 239° |
| 2026-04-22 16:35 | 4.30022 | 74.49199 | 22785 ft | 395 kts | 239° |
| 2026-04-22 16:35 | 4.28656 | 74.46821 | 22400 ft | 391 kts | 239° |
| 2026-04-22 16:36 | 4.27295 | 74.44455 | 21872 ft | 390 kts | 239° |
| 2026-04-22 16:36 | 4.25947 | 74.42113 | 21352 ft | 390 kts | 239° |
| 2026-04-22 16:36 | 4.24605 | 74.39777 | 21011 ft | 384 kts | 240° |
| 2026-04-22 16:36 | 4.23280 | 74.37465 | 20541 ft | 382 kts | 240° |
| 2026-04-22 16:37 | 4.21961 | 74.35167 | 20066 ft | 380 kts | 240° |
| 2026-04-22 16:37 | 4.20664 | 74.32912 | 19625 ft | 377 kts | 240° |
| 2026-04-22 16:37 | 4.19342 | 74.30612 | 19162 ft | 375 kts | 240° |
| 2026-04-22 16:37 | 4.18044 | 74.28352 | 18712 ft | 373 kts | 240° |
| 2026-04-22 16:38 | 4.16768 | 74.26132 | 18270 ft | 372 kts | 240° |
| 2026-04-22 16:38 | 4.15483 | 74.23895 | 17786 ft | 370 kts | 240° |
| 2026-04-22 16:38 | 4.14206 | 74.21670 | 17296 ft | 366 kts | 240° |
| 2026-04-22 16:38 | 4.12927 | 74.19441 | 16659 ft | 363 kts | 240° |
| 2026-04-22 16:39 | 4.11678 | 74.17263 | 16104 ft | 358 kts | 240° |
| 2026-04-22 16:39 | 4.10478 | 74.15176 | 15915 ft | 343 kts | 240° |
| 2026-04-22 16:39 | 4.09303 | 74.13138 | 15894 ft | 336 kts | 240° |
| 2026-04-22 16:39 | 4.08136 | 74.11113 | 15898 ft | 335 kts | 240° |
| 2026-04-22 16:40 | 4.06969 | 74.09090 | 15747 ft | 334 kts | 240° |
| 2026-04-22 16:40 | 4.05801 | 74.07060 | 14691 ft | 342 kts | 240° |
| 2026-04-22 16:40 | 4.03419 | 74.02915 | 13042 ft | 339 kts | 240° |
| 2026-04-22 16:41 | 4.02261 | 74.00907 | 12633 ft | 329 kts | 240° |
| 2026-04-22 16:41 | 4.01117 | 73.98926 | 12211 ft | 328 kts | 240° |
| 2026-04-22 16:41 | 3.99976 | 73.96946 | 11802 ft | 328 kts | 240° |
| 2026-04-22 16:41 | 3.98840 | 73.94973 | 11395 ft | 327 kts | 240° |
| 2026-04-22 16:42 | 3.97704 | 73.93001 | 10962 ft | 326 kts | 240° |
| 2026-04-22 16:42 | 3.96576 | 73.91039 | 10686 ft | 321 kts | 240° |
| 2026-04-22 16:42 | 3.95541 | 73.89103 | 10540 ft | 311 kts | 248° |
| 2026-04-22 16:42 | 3.94975 | 73.87025 | 10206 ft | 309 kts | 263° |
| 2026-04-22 16:43 | 3.94911 | 73.84880 | 9854 ft | 308 kts | 271° |
| 2026-04-22 16:43 | 3.94920 | 73.83458 | 9609 ft | 308 kts | 271° |
| 2026-04-22 16:43 | 3.94926 | 73.81320 | 9236 ft | 306 kts | 271° |
| 2026-04-22 16:43 | 3.94928 | 73.78476 | 8758 ft | 304 kts | 270° |
| 2026-04-22 16:44 | 3.94925 | 73.77048 | 8527 ft | 303 kts | 270° |
| 2026-04-22 16:44 | 3.94922 | 73.74944 | 8186 ft | 301 kts | 270° |
| 2026-04-22 16:44 | 3.94919 | 73.72850 | 7848 ft | 300 kts | 270° |
| 2026-04-22 16:44 | 3.94919 | 73.70770 | 7516 ft | 298 kts | 270° |
| 2026-04-22 16:45 | 3.94921 | 73.68700 | 7189 ft | 296 kts | 270° |
| 2026-04-22 16:45 | 3.94923 | 73.66640 | 6865 ft | 295 kts | 270° |
| 2026-04-22 16:45 | 3.94923 | 73.64599 | 6457 ft | 291 kts | 270° |
| 2026-04-22 16:45 | 3.94921 | 73.62574 | 5847 ft | 290 kts | 270° |
| 2026-04-22 16:46 | 3.94916 | 73.60577 | 5434 ft | 281 kts | 270° |
| 2026-04-22 16:46 | 3.94910 | 73.58649 | 5063 ft | 271 kts | 270° |
| 2026-04-22 16:46 | 3.94906 | 73.56825 | 4898 ft | 254 kts | 270° |
| 2026-04-22 16:46 | 3.95031 | 73.55088 | 4759 ft | 248 kts | 288° |
| 2026-04-22 16:47 | 3.95958 | 73.53656 | 4219 ft | 250 kts | 325° |
| 2026-04-22 16:47 | 3.97531 | 73.53102 | 3889 ft | 236 kts | 357° |
| 2026-04-22 16:47 | 3.99138 | 73.53085 | 3607 ft | 229 kts | 2° |
| 2026-04-22 16:47 | 4.00727 | 73.53112 | 3312 ft | 228 kts | 1° |
| 2026-04-22 16:48 | 4.02309 | 73.53118 | 3022 ft | 227 kts | 1° |
| 2026-04-22 16:48 | 4.03881 | 73.53116 | 2732 ft | 225 kts | 0° |
| 2026-04-22 16:48 | 4.05445 | 73.53115 | 2445 ft | 224 kts | 0° |
| 2026-04-22 16:48 | 4.07004 | 73.53113 | 2157 ft | 223 kts | 0° |
| 2026-04-22 16:49 | 4.08544 | 73.53111 | 1871 ft | 217 kts | 0° |
| 2026-04-22 16:49 | 4.10009 | 73.53110 | 1621 ft | 203 kts | 0° |
| 2026-04-22 16:49 | 4.11377 | 73.53109 | 1352 ft | 191 kts | 0° |
| 2026-04-22 16:49 | 4.12649 | 73.53107 | 1101 ft | 175 kts | 0° |
| 2026-04-22 16:50 | 4.13794 | 73.53107 | 927 ft | 156 kts | 0° |
| 2026-04-22 16:50 | 4.14843 | 73.53106 | 719 ft | 147 kts | 0° |
| 2026-04-22 16:50 | 4.15852 | 73.53105 | 547 ft | 144 kts | 1° |
| 2026-04-22 16:50 | 4.16847 | 73.53103 | 367 ft | 142 kts | 1° |
| 2026-04-22 16:51 | 4.17830 | 73.53105 | 190 ft | 141 kts | 1° |
| 2026-04-22 16:51 | 4.18809 | 73.53105 | 21 ft | 136 kts | 1° |
| 2026-04-22 16:51 | 4.19609 | 73.53105 | 14 ft | 91 kts | 360° |
| 2026-04-22 16:51 | 4.20102 | 73.53105 | 12 ft | 62 kts | 360° |
| 2026-04-22 16:52 | 4.20508 | 73.53105 | 16 ft | 55 kts | 360° |
| 2026-04-22 16:52 | 4.20866 | 73.53104 | 17 ft | 46 kts | 359° |
| 2026-04-22 16:52 | 4.21157 | 73.53104 | 14 ft | 35 kts | 0° |
| 2026-04-22 16:52 | 4.21248 | 73.53052 | 13 ft | 15 kts | 269° |
| 2026-04-22 16:53 | 4.21214 | 73.52995 | 13 ft | 10 kts | 196° |
| 2026-04-22 16:53 | 4.21136 | 73.52975 | 14 ft | 13 kts | 195° |
| 2026-04-22 16:53 | 4.21041 | 73.52949 | 14 ft | 16 kts | 194° |
| 2026-04-22 16:53 | 4.20941 | 73.52936 | 14 ft | 12 kts | 152° |
| 2026-04-22 16:54 | 4.20927 | 73.53006 | 15 ft | 11 kts | 90° |
| 2026-04-22 16:54 | 4.20925 | 73.53084 | 17 ft | 12 kts | 103° |
| 2026-04-22 16:54 | 4.20848 | 73.53105 | 17 ft | 14 kts | 183° |
| 2026-04-22 16:54 | 4.20740 | 73.53105 | 16 ft | 17 kts | 180° |
| 2026-04-22 16:55 | 4.20606 | 73.53105 | 15 ft | 21 kts | 180° |
| 2026-04-22 16:55 | 4.20448 | 73.53105 | 16 ft | 25 kts | 180° |
| 2026-04-22 16:55 | 4.20260 | 73.53106 | 13 ft | 29 kts | 180° |
| 2026-04-22 16:55 | 4.20067 | 73.53105 | 12 ft | 24 kts | 180° |
| 2026-04-22 16:56 | 4.19889 | 73.53106 | 12 ft | 27 kts | 179° |
| 2026-04-22 16:56 | 4.19704 | 73.53104 | 11 ft | 26 kts | 181° |
| 2026-04-22 16:56 | 4.19519 | 73.53105 | 13 ft | 27 kts | 181° |
| 2026-04-22 16:56 | 4.19323 | 73.53105 | 15 ft | 29 kts | 179° |
| 2026-04-22 16:57 | 4.19114 | 73.53105 | 16 ft | 31 kts | 180° |
| 2026-04-22 16:57 | 4.19011 | 73.53080 | 17 ft | 8 kts | 252° |
| 2026-04-22 16:57 | 4.19010 | 73.53009 | 16 ft | 12 kts | 270° |
| 2026-04-22 16:57 | 4.19005 | 73.52932 | 14 ft | 6 kts | 246° |
| 2026-04-22 16:58 | 4.18979 | 73.52920 | 14 ft | 7 kts | 188° |
| 2026-04-22 16:58 | 4.18928 | 73.52880 | 14 ft | 6 kts | 257° |
| 2026-04-22 16:58 | 4.18920 | 73.52828 | 14 ft | 6 kts | 270° |
| 2026-04-22 16:58 | 4.18919 | 73.52803 | 14 ft | 3 kts | 269° |
| 2026-04-22 16:59 | 4.18919 | 73.52789 | 14 ft | 1 kts | 269° |
| 2026-04-22 16:59 | 4.18919 | 73.52785 | 14 ft | 0 kts | 269° |